sensor_id;sensor_type;location;lat;lon;timestamp;P1;durP1;ratioP1;P2;durP2;ratioP2
51985;SDS011;38002;53.296;6.600;2023-03-02T00:04:52;10.93;;;4.78;;
51985;SDS011;38002;53.296;6.600;2023-03-02T00:09:55;6.47;;;4.32;;
51985;SDS011;38002;53.296;6.600;2023-03-02T00:14:55;5.05;;;3.58;;
51985;SDS011;38002;53.296;6.600;2023-03-02T00:19:56;5.97;;;3.92;;
51985;SDS011;38002;53.296;6.600;2023-03-02T00:25:11;5.68;;;4.47;;
51985;SDS011;38002;53.296;6.600;2023-03-02T00:30:13;4.97;;;3.75;;
51985;SDS011;38002;53.296;6.600;2023-03-02T00:35:14;4.80;;;3.92;;
51985;SDS011;38002;53.296;6.600;2023-03-02T00:40:16;3.97;;;3.67;;
51985;SDS011;38002;53.296;6.600;2023-03-02T00:45:16;5.50;;;4.38;;
51985;SDS011;38002;53.296;6.600;2023-03-02T00:50:17;5.20;;;3.35;;
51985;SDS011;38002;53.296;6.600;2023-03-02T00:55:17;3.67;;;3.38;;
51985;SDS011;38002;53.296;6.600;2023-03-02T01:00:18;4.55;;;4.00;;
51985;SDS011;38002;53.296;6.600;2023-03-02T01:05:18;3.95;;;3.63;;
51985;SDS011;38002;53.296;6.600;2023-03-02T01:10:19;4.32;;;3.92;;
51985;SDS011;38002;53.296;6.600;2023-03-02T01:15:19;4.03;;;3.63;;
51985;SDS011;38002;53.296;6.600;2023-03-02T01:20:20;5.68;;;4.30;;
51985;SDS011;38002;53.296;6.600;2023-03-02T01:25:20;5.93;;;4.13;;
51985;SDS011;38002;53.296;6.600;2023-03-02T01:30:21;6.97;;;5.35;;
51985;SDS011;38002;53.296;6.600;2023-03-02T01:35:21;8.75;;;5.32;;
51985;SDS011;38002;53.296;6.600;2023-03-02T01:40:22;8.60;;;6.13;;
51985;SDS011;38002;53.296;6.600;2023-03-02T01:45:42;11.05;;;6.40;;
51985;SDS011;38002;53.296;6.600;2023-03-02T01:50:54;11.80;;;7.88;;
51985;SDS011;38002;53.296;6.600;2023-03-02T01:55:56;13.67;;;8.17;;
51985;SDS011;38002;53.296;6.600;2023-03-02T02:00:58;14.77;;;7.57;;
51985;SDS011;38002;53.296;6.600;2023-03-02T02:06:03;14.53;;;9.53;;
51985;SDS011;38002;53.296;6.600;2023-03-02T02:11:09;16.33;;;9.32;;
51985;SDS011;38002;53.296;6.600;2023-03-02T02:16:11;17.65;;;11.20;;
51985;SDS011;38002;53.296;6.600;2023-03-02T02:21:11;20.40;;;11.70;;
51985;SDS011;38002;53.296;6.600;2023-03-02T02:26:14;21.15;;;12.43;;
51985;SDS011;38002;53.296;6.600;2023-03-02T02:31:21;19.65;;;10.88;;
51985;SDS011;38002;53.296;6.600;2023-03-02T02:36:31;18.35;;;10.55;;
51985;SDS011;38002;53.296;6.600;2023-03-02T02:41:37;20.02;;;12.65;;
51985;SDS011;38002;53.296;6.600;2023-03-02T02:46:38;18.40;;;11.47;;
51985;SDS011;38002;53.296;6.600;2023-03-02T02:51:39;22.33;;;13.85;;
51985;SDS011;38002;53.296;6.600;2023-03-02T02:56:40;24.00;;;12.67;;
51985;SDS011;38002;53.296;6.600;2023-03-02T03:01:42;22.95;;;12.07;;
51985;SDS011;38002;53.296;6.600;2023-03-02T03:12:13;23.73;;;13.98;;
51985;SDS011;38002;53.296;6.600;2023-03-02T03:17:17;23.15;;;12.60;;
51985;SDS011;38002;53.296;6.600;2023-03-02T03:22:18;27.35;;;13.48;;
51985;SDS011;38002;53.296;6.600;2023-03-02T03:27:18;26.05;;;12.35;;
51985;SDS011;38002;53.296;6.600;2023-03-02T03:32:19;22.10;;;11.45;;
51985;SDS011;38002;53.296;6.600;2023-03-02T03:37:20;24.30;;;13.97;;
51985;SDS011;38002;53.296;6.600;2023-03-02T03:42:20;31.10;;;16.38;;
51985;SDS011;38002;53.296;6.600;2023-03-02T03:47:23;27.67;;;12.48;;
51985;SDS011;38002;53.296;6.600;2023-03-02T03:52:23;29.27;;;14.70;;
51985;SDS011;38002;53.296;6.600;2023-03-02T03:57:29;28.23;;;14.25;;
51985;SDS011;38002;53.296;6.600;2023-03-02T04:02:29;25.00;;;12.70;;
51985;SDS011;38002;53.296;6.600;2023-03-02T04:07:31;30.15;;;14.30;;
51985;SDS011;38002;53.296;6.600;2023-03-02T04:12:33;35.47;;;15.70;;
51985;SDS011;38002;53.296;6.600;2023-03-02T04:17:37;39.58;;;16.58;;
51985;SDS011;38002;53.296;6.600;2023-03-02T04:22:37;30.98;;;13.82;;
51985;SDS011;38002;53.296;6.600;2023-03-02T04:27:38;38.30;;;15.77;;
51985;SDS011;38002;53.296;6.600;2023-03-02T04:32:39;34.70;;;14.23;;
51985;SDS011;38002;53.296;6.600;2023-03-02T04:37:39;40.08;;;15.60;;
51985;SDS011;38002;53.296;6.600;2023-03-02T04:42:40;39.37;;;16.57;;
51985;SDS011;38002;53.296;6.600;2023-03-02T04:47:41;38.70;;;14.27;;
51985;SDS011;38002;53.296;6.600;2023-03-02T04:52:42;42.80;;;15.80;;
51985;SDS011;38002;53.296;6.600;2023-03-02T04:57:42;39.83;;;15.50;;
51985;SDS011;38002;53.296;6.600;2023-03-02T05:02:43;39.65;;;15.00;;
51985;SDS011;38002;53.296;6.600;2023-03-02T05:07:43;38.65;;;15.55;;
51985;SDS011;38002;53.296;6.600;2023-03-02T05:12:44;44.35;;;17.80;;
51985;SDS011;38002;53.296;6.600;2023-03-02T05:17:54;35.88;;;14.38;;
51985;SDS011;38002;53.296;6.600;2023-03-02T05:22:56;33.45;;;14.15;;
51985;SDS011;38002;53.296;6.600;2023-03-02T05:27:58;42.53;;;15.85;;
51985;SDS011;38002;53.296;6.600;2023-03-02T05:32:59;38.53;;;14.57;;
51985;SDS011;38002;53.296;6.600;2023-03-02T05:38:00;51.53;;;17.20;;
51985;SDS011;38002;53.296;6.600;2023-03-02T05:43:00;50.25;;;18.85;;
51985;SDS011;38002;53.296;6.600;2023-03-02T05:48:01;47.28;;;19.02;;
51985;SDS011;38002;53.296;6.600;2023-03-02T05:53:02;42.17;;;17.40;;
51985;SDS011;38002;53.296;6.600;2023-03-02T05:58:05;51.33;;;20.60;;
51985;SDS011;38002;53.296;6.600;2023-03-02T06:03:08;56.30;;;20.20;;
51985;SDS011;38002;53.296;6.600;2023-03-02T06:08:08;60.20;;;21.17;;
51985;SDS011;38002;53.296;6.600;2023-03-02T06:13:09;44.97;;;19.65;;
51985;SDS011;38002;53.296;6.600;2023-03-02T06:18:09;52.65;;;19.42;;
51985;SDS011;38002;53.296;6.600;2023-03-02T06:23:11;49.60;;;20.20;;
51985;SDS011;38002;53.296;6.600;2023-03-02T06:28:12;55.75;;;22.67;;
51985;SDS011;38002;53.296;6.600;2023-03-02T06:33:14;61.55;;;24.38;;
51985;SDS011;38002;53.296;6.600;2023-03-02T06:38:15;65.68;;;22.73;;
51985;SDS011;38002;53.296;6.600;2023-03-02T06:43:16;52.67;;;21.08;;
51985;SDS011;38002;53.296;6.600;2023-03-02T06:48:16;40.30;;;16.50;;
51985;SDS011;38002;53.296;6.600;2023-03-02T06:53:17;44.03;;;16.70;;
51985;SDS011;38002;53.296;6.600;2023-03-02T06:58:19;29.10;;;15.27;;
51985;SDS011;38002;53.296;6.600;2023-03-02T07:03:19;40.15;;;15.50;;
51985;SDS011;38002;53.296;6.600;2023-03-02T07:08:20;31.98;;;13.27;;
51985;SDS011;38002;53.296;6.600;2023-03-02T07:13:21;30.23;;;13.43;;
51985;SDS011;38002;53.296;6.600;2023-03-02T07:18:21;30.90;;;13.65;;
51985;SDS011;38002;53.296;6.600;2023-03-02T07:23:21;27.23;;;13.57;;
51985;SDS011;38002;53.296;6.600;2023-03-02T07:28:22;35.10;;;15.02;;
51985;SDS011;38002;53.296;6.600;2023-03-02T07:33:24;31.48;;;13.73;;
51985;SDS011;38002;53.296;6.600;2023-03-02T07:38:24;24.33;;;11.35;;
51985;SDS011;38002;53.296;6.600;2023-03-02T07:43:25;30.08;;;12.95;;
51985;SDS011;38002;53.296;6.600;2023-03-02T07:48:27;24.90;;;9.88;;
51985;SDS011;38002;53.296;6.600;2023-03-02T07:53:28;22.90;;;10.82;;
51985;SDS011;38002;53.296;6.600;2023-03-02T07:58:30;29.92;;;12.32;;
51985;SDS011;38002;53.296;6.600;2023-03-02T08:03:30;29.23;;;12.32;;
51985;SDS011;38002;53.296;6.600;2023-03-02T08:08:31;23.05;;;11.18;;
51985;SDS011;38002;53.296;6.600;2023-03-02T08:13:31;29.30;;;10.18;;
51985;SDS011;38002;53.296;6.600;2023-03-02T08:18:32;26.33;;;12.35;;
51985;SDS011;38002;53.296;6.600;2023-03-02T08:28:35;21.73;;;10.30;;
51985;SDS011;38002;53.296;6.600;2023-03-02T08:33:36;25.20;;;11.90;;
51985;SDS011;38002;53.296;6.600;2023-03-02T08:38:36;27.05;;;12.77;;
51985;SDS011;38002;53.296;6.600;2023-03-02T08:43:37;28.15;;;10.50;;
51985;SDS011;38002;53.296;6.600;2023-03-02T08:48:38;22.73;;;10.35;;
51985;SDS011;38002;53.296;6.600;2023-03-02T08:53:39;30.08;;;12.30;;
51985;SDS011;38002;53.296;6.600;2023-03-02T08:58:41;23.92;;;11.07;;
51985;SDS011;38002;53.296;6.600;2023-03-02T09:03:42;29.98;;;13.05;;
51985;SDS011;38002;53.296;6.600;2023-03-02T09:08:42;25.20;;;11.55;;
51985;SDS011;38002;53.296;6.600;2023-03-02T09:13:43;23.20;;;9.50;;
51985;SDS011;38002;53.296;6.600;2023-03-02T09:18:44;31.92;;;12.02;;
51985;SDS011;38002;53.296;6.600;2023-03-02T09:23:45;21.20;;;11.17;;
51985;SDS011;38002;53.296;6.600;2023-03-02T09:28:46;25.83;;;11.05;;
51985;SDS011;38002;53.296;6.600;2023-03-02T09:33:46;19.55;;;10.50;;
51985;SDS011;38002;53.296;6.600;2023-03-02T09:38:47;21.83;;;10.82;;
51985;SDS011;38002;53.296;6.600;2023-03-02T09:54:21;20.00;;;7.60;;
51985;SDS011;38002;53.296;6.600;2023-03-02T09:59:30;20.42;;;10.25;;
51985;SDS011;38002;53.296;6.600;2023-03-02T10:04:42;16.23;;;7.72;;
51985;SDS011;38002;53.296;6.600;2023-03-02T10:09:46;17.23;;;9.18;;
51985;SDS011;38002;53.296;6.600;2023-03-02T10:14:48;21.00;;;9.73;;
51985;SDS011;38002;53.296;6.600;2023-03-02T10:19:56;16.77;;;8.55;;
51985;SDS011;38002;53.296;6.600;2023-03-02T10:30:17;18.63;;;9.93;;
51985;SDS011;38002;53.296;6.600;2023-03-02T10:35:26;20.00;;;9.23;;
51985;SDS011;38002;53.296;6.600;2023-03-02T10:46:03;15.43;;;7.75;;
51985;SDS011;38002;53.296;6.600;2023-03-02T10:51:18;20.77;;;11.55;;
51985;SDS011;38002;53.296;6.600;2023-03-02T10:56:20;20.65;;;9.88;;
51985;SDS011;38002;53.296;6.600;2023-03-02T11:01:21;14.80;;;8.63;;
51985;SDS011;38002;53.296;6.600;2023-03-02T11:06:21;16.63;;;9.65;;
51985;SDS011;38002;53.296;6.600;2023-03-02T11:11:23;23.40;;;11.03;;
51985;SDS011;38002;53.296;6.600;2023-03-02T11:16:25;18.98;;;9.40;;
51985;SDS011;38002;53.296;6.600;2023-03-02T11:21:34;19.00;;;11.15;;
51985;SDS011;38002;53.296;6.600;2023-03-02T11:32:08;25.55;;;13.20;;
51985;SDS011;38002;53.296;6.600;2023-03-02T11:37:14;23.55;;;13.40;;
51985;SDS011;38002;53.296;6.600;2023-03-02T11:42:23;22.33;;;12.07;;
51985;SDS011;38002;53.296;6.600;2023-03-02T11:47:27;22.85;;;12.07;;
51985;SDS011;38002;53.296;6.600;2023-03-02T11:52:32;16.30;;;9.23;;
51985;SDS011;38002;53.296;6.600;2023-03-02T11:57:38;18.10;;;10.77;;
51985;SDS011;38002;53.296;6.600;2023-03-02T12:02:56;18.80;;;8.82;;
51985;SDS011;38002;53.296;6.600;2023-03-02T12:13:22;16.70;;;9.88;;
51985;SDS011;38002;53.296;6.600;2023-03-02T12:18:30;15.93;;;9.63;;
51985;SDS011;38002;53.296;6.600;2023-03-02T12:33:57;15.23;;;9.65;;
51985;SDS011;38002;53.296;6.600;2023-03-02T12:39:08;14.32;;;9.75;;
51985;SDS011;38002;53.296;6.600;2023-03-02T12:49:50;16.40;;;9.40;;
51985;SDS011;38002;53.296;6.600;2023-03-02T12:55:03;16.17;;;10.80;;
51985;SDS011;38002;53.296;6.600;2023-03-02T13:00:11;16.27;;;9.77;;
51985;SDS011;38002;53.296;6.600;2023-03-02T13:05:23;15.40;;;9.82;;
51985;SDS011;38002;53.296;6.600;2023-03-02T13:15:45;20.10;;;10.52;;
51985;SDS011;38002;53.296;6.600;2023-03-02T13:20:48;16.38;;;9.75;;
51985;SDS011;38002;53.296;6.600;2023-03-02T13:25:54;16.05;;;10.73;;
51985;SDS011;38002;53.296;6.600;2023-03-02T13:31:05;19.58;;;11.38;;
51985;SDS011;38002;53.296;6.600;2023-03-02T13:36:06;16.30;;;10.07;;
51985;SDS011;38002;53.296;6.600;2023-03-02T13:41:06;16.70;;;10.18;;
51985;SDS011;38002;53.296;6.600;2023-03-02T13:51:14;15.90;;;10.48;;
51985;SDS011;38002;53.296;6.600;2023-03-02T13:56:16;20.30;;;11.95;;
51985;SDS011;38002;53.296;6.600;2023-03-02T14:01:17;17.35;;;10.73;;
51985;SDS011;38002;53.296;6.600;2023-03-02T14:06:18;15.13;;;9.93;;
51985;SDS011;38002;53.296;6.600;2023-03-02T14:11:18;14.95;;;9.80;;
51985;SDS011;38002;53.296;6.600;2023-03-02T14:16:19;14.40;;;9.80;;
51985;SDS011;38002;53.296;6.600;2023-03-02T14:21:21;14.23;;;9.13;;
51985;SDS011;38002;53.296;6.600;2023-03-02T14:31:26;19.25;;;11.65;;
51985;SDS011;38002;53.296;6.600;2023-03-02T14:36:33;14.25;;;10.80;;
51985;SDS011;38002;53.296;6.600;2023-03-02T14:41:34;13.32;;;9.90;;
51985;SDS011;38002;53.296;6.600;2023-03-02T14:46:37;18.20;;;11.77;;
51985;SDS011;38002;53.296;6.600;2023-03-02T14:51:38;16.50;;;12.73;;
51985;SDS011;38002;53.296;6.600;2023-03-02T14:56:40;17.80;;;12.52;;
51985;SDS011;38002;53.296;6.600;2023-03-02T15:01:42;21.33;;;13.50;;
51985;SDS011;38002;53.296;6.600;2023-03-02T15:06:43;17.33;;;12.48;;
51985;SDS011;38002;53.296;6.600;2023-03-02T15:11:45;18.23;;;12.20;;
51985;SDS011;38002;53.296;6.600;2023-03-02T15:16:45;17.55;;;12.48;;
51985;SDS011;38002;53.296;6.600;2023-03-02T15:21:46;12.13;;;8.98;;
51985;SDS011;38002;53.296;6.600;2023-03-02T15:26:46;12.93;;;9.13;;
51985;SDS011;38002;53.296;6.600;2023-03-02T15:31:47;12.98;;;8.77;;
51985;SDS011;38002;53.296;6.600;2023-03-02T15:36:48;8.30;;;5.97;;
51985;SDS011;38002;53.296;6.600;2023-03-02T15:41:48;10.07;;;7.30;;
51985;SDS011;38002;53.296;6.600;2023-03-02T15:46:49;10.70;;;7.82;;
51985;SDS011;38002;53.296;6.600;2023-03-02T15:51:53;12.73;;;8.10;;
51985;SDS011;38002;53.296;6.600;2023-03-02T15:56:56;11.48;;;7.38;;
51985;SDS011;38002;53.296;6.600;2023-03-02T16:01:57;15.95;;;6.78;;
51985;SDS011;38002;53.296;6.600;2023-03-02T16:06:58;11.23;;;7.30;;
51985;SDS011;38002;53.296;6.600;2023-03-02T16:11:59;9.93;;;7.18;;
51985;SDS011;38002;53.296;6.600;2023-03-02T16:17:00;9.55;;;6.38;;
51985;SDS011;38002;53.296;6.600;2023-03-02T16:22:00;10.32;;;7.10;;
51985;SDS011;38002;53.296;6.600;2023-03-02T16:27:00;10.20;;;6.40;;
51985;SDS011;38002;53.296;6.600;2023-03-02T16:32:01;8.52;;;6.55;;
51985;SDS011;38002;53.296;6.600;2023-03-02T16:37:01;9.85;;;6.55;;
51985;SDS011;38002;53.296;6.600;2023-03-02T16:42:02;10.57;;;6.30;;
51985;SDS011;38002;53.296;6.600;2023-03-02T16:47:03;13.73;;;6.97;;
51985;SDS011;38002;53.296;6.600;2023-03-02T16:52:03;8.68;;;5.88;;
51985;SDS011;38002;53.296;6.600;2023-03-02T16:57:04;11.02;;;6.25;;
51985;SDS011;38002;53.296;6.600;2023-03-02T17:02:05;8.68;;;5.28;;
51985;SDS011;38002;53.296;6.600;2023-03-02T17:07:05;11.90;;;5.68;;
51985;SDS011;38002;53.296;6.600;2023-03-02T17:12:06;9.30;;;6.10;;
51985;SDS011;38002;53.296;6.600;2023-03-02T17:17:07;9.85;;;5.47;;
51985;SDS011;38002;53.296;6.600;2023-03-02T17:22:08;7.57;;;5.18;;
51985;SDS011;38002;53.296;6.600;2023-03-02T17:27:08;9.30;;;6.03;;
51985;SDS011;38002;53.296;6.600;2023-03-02T17:32:09;8.98;;;6.35;;
51985;SDS011;38002;53.296;6.600;2023-03-02T17:37:09;8.18;;;5.13;;
51985;SDS011;38002;53.296;6.600;2023-03-02T17:42:10;9.63;;;5.15;;
51985;SDS011;38002;53.296;6.600;2023-03-02T17:47:13;12.00;;;6.72;;
51985;SDS011;38002;53.296;6.600;2023-03-02T17:52:15;12.02;;;6.32;;
51985;SDS011;38002;53.296;6.600;2023-03-02T18:02:21;10.77;;;5.68;;
51985;SDS011;38002;53.296;6.600;2023-03-02T18:07:22;9.52;;;6.65;;
51985;SDS011;38002;53.296;6.600;2023-03-02T18:12:22;9.25;;;6.38;;
51985;SDS011;38002;53.296;6.600;2023-03-02T18:17:23;13.52;;;6.70;;
51985;SDS011;38002;53.296;6.600;2023-03-02T18:22:23;9.82;;;6.05;;
51985;SDS011;38002;53.296;6.600;2023-03-02T18:27:24;10.00;;;7.20;;
51985;SDS011;38002;53.296;6.600;2023-03-02T18:32:24;13.07;;;6.68;;
51985;SDS011;38002;53.296;6.600;2023-03-02T18:37:25;14.45;;;7.18;;
51985;SDS011;38002;53.296;6.600;2023-03-02T18:42:26;10.38;;;6.82;;
51985;SDS011;38002;53.296;6.600;2023-03-02T18:47:27;10.70;;;7.78;;
51985;SDS011;38002;53.296;6.600;2023-03-02T18:52:28;11.90;;;6.25;;
51985;SDS011;38002;53.296;6.600;2023-03-02T18:57:28;13.32;;;8.10;;
51985;SDS011;38002;53.296;6.600;2023-03-02T19:02:29;13.40;;;8.50;;
51985;SDS011;38002;53.296;6.600;2023-03-02T19:07:29;14.57;;;8.57;;
51985;SDS011;38002;53.296;6.600;2023-03-02T19:12:30;10.68;;;6.53;;
51985;SDS011;38002;53.296;6.600;2023-03-02T19:17:30;10.40;;;7.47;;
51985;SDS011;38002;53.296;6.600;2023-03-02T19:22:31;17.15;;;8.23;;
51985;SDS011;38002;53.296;6.600;2023-03-02T19:27:32;11.98;;;7.15;;
51985;SDS011;38002;53.296;6.600;2023-03-02T19:32:32;10.25;;;6.68;;
51985;SDS011;38002;53.296;6.600;2023-03-02T19:37:33;16.60;;;10.20;;
51985;SDS011;38002;53.296;6.600;2023-03-02T19:42:34;19.42;;;10.73;;
51985;SDS011;38002;53.296;6.600;2023-03-02T19:47:38;15.73;;;10.35;;
51985;SDS011;38002;53.296;6.600;2023-03-02T19:52:38;14.32;;;9.32;;
51985;SDS011;38002;53.296;6.600;2023-03-02T19:57:39;15.02;;;10.07;;
51985;SDS011;38002;53.296;6.600;2023-03-02T20:02:41;15.25;;;10.25;;
51985;SDS011;38002;53.296;6.600;2023-03-02T20:07:41;18.63;;;11.40;;
51985;SDS011;38002;53.296;6.600;2023-03-02T20:12:42;19.35;;;10.63;;
51985;SDS011;38002;53.296;6.600;2023-03-02T20:17:42;17.23;;;10.40;;
51985;SDS011;38002;53.296;6.600;2023-03-02T20:22:43;15.52;;;10.82;;
51985;SDS011;38002;53.296;6.600;2023-03-02T20:27:45;16.60;;;9.60;;
51985;SDS011;38002;53.296;6.600;2023-03-02T20:32:48;17.35;;;10.88;;
51985;SDS011;38002;53.296;6.600;2023-03-02T20:37:49;21.80;;;12.83;;
51985;SDS011;38002;53.296;6.600;2023-03-02T20:42:51;24.33;;;12.18;;
51985;SDS011;38002;53.296;6.600;2023-03-02T20:47:51;14.77;;;9.98;;
51985;SDS011;38002;53.296;6.600;2023-03-02T20:52:52;22.50;;;12.48;;
51985;SDS011;38002;53.296;6.600;2023-03-02T20:57:53;18.00;;;9.88;;
51985;SDS011;38002;53.296;6.600;2023-03-02T21:02:54;19.92;;;10.40;;
51985;SDS011;38002;53.296;6.600;2023-03-02T21:07:56;22.42;;;9.40;;
51985;SDS011;38002;53.296;6.600;2023-03-02T21:12:57;16.23;;;7.78;;
51985;SDS011;38002;53.296;6.600;2023-03-02T21:17:58;15.75;;;9.57;;
51985;SDS011;38002;53.296;6.600;2023-03-02T21:22:59;18.07;;;9.10;;
51985;SDS011;38002;53.296;6.600;2023-03-02T21:27:59;19.27;;;10.25;;
51985;SDS011;38002;53.296;6.600;2023-03-02T21:33:00;18.70;;;10.18;;
51985;SDS011;38002;53.296;6.600;2023-03-02T21:38:02;25.35;;;12.10;;
51985;SDS011;38002;53.296;6.600;2023-03-02T21:43:04;21.53;;;11.37;;
51985;SDS011;38002;53.296;6.600;2023-03-02T21:48:06;25.27;;;12.90;;
51985;SDS011;38002;53.296;6.600;2023-03-02T21:53:07;25.93;;;11.47;;
51985;SDS011;38002;53.296;6.600;2023-03-02T21:58:08;18.27;;;9.65;;
51985;SDS011;38002;53.296;6.600;2023-03-02T22:03:09;27.38;;;10.55;;
51985;SDS011;38002;53.296;6.600;2023-03-02T22:08:17;26.45;;;9.10;;
51985;SDS011;38002;53.296;6.600;2023-03-02T22:13:36;25.88;;;9.55;;
51985;SDS011;38002;53.296;6.600;2023-03-02T22:18:37;23.75;;;9.68;;
51985;SDS011;38002;53.296;6.600;2023-03-02T22:23:38;22.90;;;8.20;;
51985;SDS011;38002;53.296;6.600;2023-03-02T22:28:38;26.27;;;7.63;;
51985;SDS011;38002;53.296;6.600;2023-03-02T22:33:40;18.20;;;9.03;;
51985;SDS011;38002;53.296;6.600;2023-03-02T22:38:40;29.20;;;7.65;;
51985;SDS011;38002;53.296;6.600;2023-03-02T22:43:41;18.13;;;8.73;;
51985;SDS011;38002;53.296;6.600;2023-03-02T22:48:42;19.20;;;6.95;;
51985;SDS011;38002;53.296;6.600;2023-03-02T22:53:46;28.90;;;7.05;;
51985;SDS011;38002;53.296;6.600;2023-03-02T22:58:51;10.80;;;7.25;;
51985;SDS011;38002;53.296;6.600;2023-03-02T23:04:15;17.37;;;6.17;;
51985;SDS011;38002;53.296;6.600;2023-03-02T23:09:19;22.17;;;7.88;;
51985;SDS011;38002;53.296;6.600;2023-03-02T23:14:26;14.18;;;7.88;;
51985;SDS011;38002;53.296;6.600;2023-03-02T23:19:28;11.68;;;6.28;;
51985;SDS011;38002;53.296;6.600;2023-03-02T23:24:30;19.08;;;8.43;;
51985;SDS011;38002;53.296;6.600;2023-03-02T23:29:30;63.08;;;9.65;;
51985;SDS011;38002;53.296;6.600;2023-03-02T23:34:31;9.98;;;6.32;;
51985;SDS011;38002;53.296;6.600;2023-03-02T23:39:31;8.85;;;6.00;;
51985;SDS011;38002;53.296;6.600;2023-03-02T23:44:32;15.07;;;7.50;;
51985;SDS011;38002;53.296;6.600;2023-03-02T23:49:32;12.20;;;7.55;;
51985;SDS011;38002;53.296;6.600;2023-03-02T23:54:32;26.60;;;7.32;;
51985;SDS011;38002;53.296;6.600;2023-03-02T23:59:33;16.92;;;8.10;;
